Time;durP1;ratioP1;P1;durP2;ratioP2;P2;SDS_P1;SDS_P2;PMS_P1;PMS_P2;Temp;Humidity;BMP_temperature;BMP_pressure;BME280_temperature;BME280_humidity;BME280_pressure;Samples;Min_cycle;Max_cycle;Signal;HPM_P1;HPM_P2
2023/12/18 00:00:35;;;;;;;16.40;6.57;;;;;;;8.68;56.04;99835.63;4410072;32;20121;-82
2023/12/18 00:03:02;;;;;;;15.93;7.55;;;;;;;8.50;57.05;99825.44;4411473;32;20610;-82
2023/12/18 00:05:29;;;;;;;17.23;6.93;;;;;;;8.90;55.22;99832.91;4410885;32;20078;-82
2023/12/18 00:07:56;;;;;;;16.50;7.05;;;;;;;8.66;55.99;99815.94;4411369;32;20094;-82
2023/12/18 00:10:23;;;;;;;15.63;7.00;;;;;;;8.44;56.44;99816.94;4411178;32;20112;-82
2023/12/18 00:12:50;;;;;;;17.67;7.75;;;;;;;9.18;54.59;99813.78;4410792;32;20132;-82
2023/12/18 00:15:17;;;;;;;19.62;8.48;;;;;;;9.09;54.50;99813.88;4411744;32;20134;-82
2023/12/18 00:17:44;;;;;;;17.77;8.38;;;;;;;8.80;55.60;99814.09;4410620;32;20108;-82
2023/12/18 00:20:12;;;;;;;22.75;8.60;;;;;;;8.16;57.79;99804.19;4410387;32;20094;-82
2023/12/18 00:22:39;;;;;;;20.00;9.32;;;;;;;7.93;58.94;99811.16;4412016;32;20100;-82
2023/12/18 00:25:06;;;;;;;22.17;9.73;;;;;;;7.68;60.14;99815.53;4412499;32;20534;-82
2023/12/18 00:27:33;;;;;;;20.80;10.23;;;;;;;7.12;62.46;99819.03;4412032;32;20069;-82
2023/12/18 00:30:00;;;;;;;25.70;10.68;;;;;;;6.92;63.44;99814.78;4412599;32;20173;-82
2023/12/18 00:32:27;;;;;;;24.02;10.98;;;;;;;6.76;64.79;99810.47;4411406;32;20054;-82
2023/12/18 00:34:54;;;;;;;22.10;9.48;;;;;;;6.62;65.51;99809.63;4396872;32;20601;-82
2023/12/18 00:37:22;;;;;;;21.45;9.70;;;;;;;6.81;64.83;99808.78;4411440;32;20117;-82
2023/12/18 00:39:49;;;;;;;20.52;8.70;;;;;;;7.01;64.13;99810.47;4410961;32;20111;-82
2023/12/18 00:42:16;;;;;;;21.70;10.13;;;;;;;7.19;63.19;99806.19;4410855;32;20094;-82
2023/12/18 00:44:43;;;;;;;23.75;10.30;;;;;;;6.99;64.35;99807.06;4411164;32;20109;-82
2023/12/18 00:47:10;;;;;;;22.70;9.95;;;;;;;7.60;61.86;99807.84;4397269;32;20106;-82
2023/12/18 00:49:36;;;;;;;23.08;10.50;;;;;;;7.50;62.17;99801.00;4396942;32;20175;-82
2023/12/18 00:52:04;;;;;;;21.90;9.90;;;;;;;7.22;62.79;99797.63;4410600;32;20086;-83
2023/12/18 00:54:31;;;;;;;20.60;9.48;;;;;;;6.88;64.11;99805.34;4410285;32;20090;-82
2023/12/18 00:56:58;;;;;;;22.55;9.27;;;;;;;7.16;63.57;99802.78;4410727;32;20066;-82
2023/12/18 00:59:25;;;;;;;20.23;8.60;;;;;;;7.10;63.29;99801.06;4410481;32;20102;-82
2023/12/18 01:01:52;;;;;;;20.62;8.48;;;;;;;7.31;62.10;99804.47;4410020;32;20086;-82
2023/12/18 01:04:19;;;;;;;18.02;8.30;;;;;;;7.19;62.83;99795.94;4410504;32;20090;-82
2023/12/18 01:06:46;;;;;;;18.58;8.80;;;;;;;7.44;61.58;99794.19;4410166;32;20106;-82
2023/12/18 01:09:13;;;;;;;20.05;8.07;;;;;;;7.38;61.65;99795.91;4410448;32;20167;-82
2023/12/18 01:11:40;;;;;;;19.77;8.25;;;;;;;7.35;61.92;99788.22;4409961;32;20086;-82
2023/12/18 01:14:09;;;;;;;19.65;8.15;;;;;;;7.42;61.39;99788.19;4410277;32;20082;-82
2023/12/18 01:16:36;;;;;;;18.00;8.13;;;;;;;7.21;62.09;99773.66;4410098;32;20101;-82
2023/12/18 01:19:03;;;;;;;17.50;7.43;;;;;;;7.38;61.94;99786.47;4411258;32;20131;-83
2023/12/18 01:21:31;;;;;;;16.83;7.30;;;;;;;7.44;61.19;99771.06;4410407;32;20438;-82
2023/12/18 01:23:59;;;;;;;17.95;7.15;;;;;;;7.91;59.50;99787.16;4409907;32;20163;-82
2023/12/18 01:26:26;;;;;;;18.65;7.53;;;;;;;7.66;60.07;99776.16;4410140;32;20101;-82
2023/12/18 01:28:53;;;;;;;18.42;7.28;;;;;;;7.48;60.49;99779.63;4410171;32;20113;-82
2023/12/18 01:31:23;;;;;;;17.90;7.37;;;;;;;7.20;61.29;99771.09;4409707;32;20086;-82
2023/12/18 01:33:53;;;;;;;22.50;8.15;;;;;;;7.22;61.39;99771.94;4409942;32;20133;-82
2023/12/18 01:36:20;;;;;;;18.25;7.55;;;;;;;7.11;62.44;99768.53;4409627;32;20105;-82
2023/12/18 01:38:47;;;;;;;18.08;7.10;;;;;;;7.19;62.00;99759.13;4410355;32;20109;-83
2023/12/18 01:41:14;;;;;;;17.45;7.53;;;;;;;7.20;61.69;99764.25;4409978;32;20366;-82
2023/12/18 01:43:41;;;;;;;18.20;7.80;;;;;;;7.31;61.48;99761.66;4409587;32;20481;-82
2023/12/18 01:46:09;;;;;;;17.00;7.43;;;;;;;7.13;62.32;99765.16;4409890;32;20101;-82
2023/12/18 01:48:37;;;;;;;17.40;7.60;;;;;;;7.00;62.68;99762.56;4409915;32;20122;-82
2023/12/18 01:51:04;;;;;;;17.67;7.35;;;;;;;7.37;60.97;99753.09;4409692;32;20090;-82
2023/12/18 01:53:35;;;;;;;17.35;7.05;;;;;;;7.09;62.41;99757.44;4409890;32;20105;-82
2023/12/18 01:56:03;;;;;;;17.37;7.20;;;;;;;7.27;61.73;99756.56;4408945;32;20153;-82
2023/12/18 01:58:31;;;;;;;19.48;8.10;;;;;;;7.12;61.78;99755.72;4410062;32;20149;-82
2023/12/18 02:00:59;;;;;;;17.98;7.65;;;;;;;7.13;61.90;99754.03;4410405;32;20200;-82
2023/12/18 02:03:29;;;;;;;17.62;7.47;;;;;;;7.52;61.05;99747.91;4410527;32;20086;-82
2023/12/18 02:05:59;;;;;;;18.37;7.15;;;;;;;7.64;60.60;99752.16;4409122;32;20178;-82
2023/12/18 02:08:26;;;;;;;17.20;7.60;;;;;;;8.25;58.36;99762.13;4397435;32;20120;-82
2023/12/18 02:10:53;;;;;;;16.60;7.45;;;;;;;7.66;59.40;99751.31;4410354;32;20512;-82
2023/12/18 02:13:20;;;;;;;16.60;7.37;;;;;;;8.51;57.26;99752.59;4396833;32;20104;-82
2023/12/18 02:15:47;;;;;;;16.70;7.10;;;;;;;8.72;56.00;99753.25;4409886;32;20558;-82
2023/12/18 02:18:14;;;;;;;15.80;6.78;;;;;;;8.28;56.94;99747.53;4410285;32;20155;-82
2023/12/18 02:20:42;;;;;;;16.85;7.05;;;;;;;8.36;56.75;99753.53;4410814;32;20094;-82
2023/12/18 02:23:10;;;;;;;15.45;6.57;;;;;;;8.34;56.76;99750.13;4410421;32;20504;-82
2023/12/18 02:25:37;;;;;;;14.20;6.53;;;;;;;8.58;55.44;99751.66;4408864;32;20121;-82
2023/12/18 02:28:06;;;;;;;16.17;6.15;;;;;;;8.63;54.85;99746.50;4410767;32;20110;-82
2023/12/18 02:30:33;;;;;;;15.85;6.00;;;;;;;8.82;54.83;99736.88;4410216;32;20425;-82
2023/12/18 02:33:00;;;;;;;14.73;6.22;;;;;;;8.92;53.97;99746.22;4410053;32;20075;-82
2023/12/18 02:35:28;;;;;;;17.02;6.68;;;;;;;8.91;53.98;99742.78;4409661;32;20097;-82
2023/12/18 02:37:55;;;;;;;14.43;6.25;;;;;;;8.77;54.28;99742.06;4396353;32;20126;-82
2023/12/18 02:40:23;;;;;;;16.35;6.12;;;;;;;8.38;54.95;99748.38;4409992;32;20212;-82
2023/12/18 02:42:50;;;;;;;16.08;6.60;;;;;;;8.61;54.71;99740.47;4396857;32;20078;-82
2023/12/18 02:45:17;;;;;;;19.17;6.85;;;;;;;8.86;53.87;99744.56;4410592;32;20066;-82
2023/12/18 02:47:44;;;;;;;16.52;6.35;;;;;;;8.76;54.49;99742.09;4410308;32;20112;-83
2023/12/18 02:50:12;;;;;;;16.27;6.62;;;;;;;9.64;52.14;99746.31;4410842;32;20485;-82
2023/12/18 02:52:39;;;;;;;12.60;5.75;;;;;;;9.63;51.88;99741.19;4411078;32;20082;-82
2023/12/18 02:55:07;;;;;;;17.62;6.57;;;;;;;8.89;53.24;99741.97;4410337;32;20123;-82
2023/12/18 02:57:34;;;;;;;17.02;7.28;;;;;;;8.38;54.48;99745.78;4410646;32;20162;-82
2023/12/18 03:00:01;;;;;;;17.27;6.50;;;;;;;7.66;57.88;99743.59;4412892;32;20077;-82
2023/12/18 03:02:28;;;;;;;14.73;6.43;;;;;;;8.78;54.82;99742.91;4414329;32;20082;-82
2023/12/18 03:04:55;;;;;;;14.73;5.78;;;;;;;7.75;56.71;99734.97;4414352;32;20806;-81
2023/12/18 03:07:22;;;;;;;13.55;5.70;;;;;;;8.87;53.97;99729.97;4413973;32;20108;-81
2023/12/18 03:09:49;;;;;;;14.77;6.68;;;;;;;9.93;50.99;99738.22;4414233;32;20172;-82
2023/12/18 03:12:16;;;;;;;15.57;6.68;;;;;;;9.40;52.17;99737.16;4414686;32;20093;-83
2023/12/18 03:14:43;;;;;;;14.93;6.18;;;;;;;9.38;51.86;99738.06;4414492;32;20093;-82
2023/12/18 03:17:10;;;;;;;14.90;6.82;;;;;;;9.51;51.05;99735.31;4415074;32;20108;-82
2023/12/18 03:19:37;;;;;;;14.90;6.60;;;;;;;9.43;51.94;99739.69;4401670;32;20112;-82
2023/12/18 03:22:04;;;;;;;15.85;7.32;;;;;;;8.36;54.33;99735.50;4415029;32;20082;-82
2023/12/18 03:24:31;;;;;;;15.63;6.30;;;;;;;7.53;56.15;99729.94;4415963;32;20133;-82
2023/12/18 03:26:58;;;;;;;15.70;6.43;;;;;;;9.34;52.39;99726.06;4415187;32;20129;-83
2023/12/18 03:29:25;;;;;;;14.18;6.43;;;;;;;9.79;50.92;99722.09;4414909;32;20852;-82
2023/12/18 03:31:52;;;;;;;13.88;6.57;;;;;;;8.80;52.74;99725.75;4415560;32;20145;-82
2023/12/18 03:34:19;;;;;;;14.65;5.72;;;;;;;8.61;54.13;99727.59;4415086;32;20512;-82
2023/12/18 03:36:48;;;;;;;12.70;5.93;;;;;;;9.65;51.01;99726.56;4414609;32;20145;-82
2023/12/18 03:39:15;;;;;;;15.55;5.95;;;;;;;8.56;53.24;99732.81;4414723;32;20109;-83
2023/12/18 03:41:42;;;;;;;15.48;6.07;;;;;;;7.61;56.88;99732.47;4414361;32;20082;-83
2023/12/18 03:44:09;;;;;;;15.63;6.45;;;;;;;6.32;61.16;99728.38;4414918;32;20110;-82
2023/12/18 03:46:36;;;;;;;17.12;7.10;;;;;;;7.97;57.38;99728.00;4415215;32;20098;-82
2023/12/18 03:49:03;;;;;;;16.02;6.90;;;;;;;7.74;57.50;99728.97;4414738;32;20090;-83
2023/12/18 03:51:30;;;;;;;16.60;6.95;;;;;;;8.67;54.10;99727.56;4413612;32;20074;-83
2023/12/18 03:53:57;;;;;;;14.52;6.75;;;;;;;9.07;52.94;99720.34;4414222;32;20078;-82
2023/12/18 03:56:24;;;;;;;16.02;7.12;;;;;;;9.42;51.92;99719.09;4414861;32;20078;-82
2023/12/18 03:58:51;;;;;;;14.75;6.50;;;;;;;9.98;50.40;99720.09;4413864;32;20463;-82
2023/12/18 04:01:18;;;;;;;14.25;6.85;;;;;;;9.40;51.21;99718.28;4414263;32;20085;-82
2023/12/18 04:03:45;;;;;;;19.23;7.82;;;;;;;9.20;51.66;99714.19;4414482;32;20091;-82
2023/12/18 04:06:12;;;;;;;17.30;6.95;;;;;;;9.37;51.31;99711.44;4414072;32;20112;-83
2023/12/18 04:08:39;;;;;;;16.05;7.12;;;;;;;9.64;50.47;99704.25;4414287;32;20113;-83
2023/12/18 04:11:16;;;;;;;14.32;6.30;;;;;;;9.52;51.09;99698.38;4412508;32;20081;-82
2023/12/18 04:13:43;;;;;;;15.77;6.05;;;;;;;9.52;50.90;99694.94;4414340;32;20116;-83
2023/12/18 04:16:10;;;;;;;15.13;6.70;;;;;;;9.95;50.13;99697.81;4412219;32;20487;-82
2023/12/18 04:18:37;;;;;;;13.43;5.72;;;;;;;10.03;49.37;99700.28;4412394;32;20105;-83
2023/12/18 04:21:04;;;;;;;14.23;5.93;;;;;;;8.70;52.72;99696.66;4413647;32;20077;-82
2023/12/18 04:23:31;;;;;;;13.60;6.22;;;;;;;9.57;51.07;99700.91;4413523;32;20139;-82
2023/12/18 04:25:58;;;;;;;16.50;7.22;;;;;;;9.31;51.58;99700.34;4413189;32;20154;-82
2023/12/18 04:28:25;;;;;;;15.88;6.78;;;;;;;8.49;53.52;99707.12;4414516;32;20104;-83
2023/12/18 04:30:52;;;;;;;14.75;6.68;;;;;;;9.04;53.07;99710.09;4414144;32;20413;-82
2023/12/18 04:33:19;;;;;;;14.43;6.32;;;;;;;8.37;54.57;99716.66;4413949;32;20468;-82
2023/12/18 04:35:46;;;;;;;15.32;6.00;;;;;;;9.18;52.12;99703.06;4414243;32;20204;-82
2023/12/18 04:38:13;;;;;;;16.27;6.80;;;;;;;9.33;51.68;99711.47;4414454;32;20075;-82
2023/12/18 04:40:40;;;;;;;14.55;6.28;;;;;;;9.13;51.62;99703.97;4412680;32;20118;-82
2023/12/18 04:43:07;;;;;;;13.75;6.30;;;;;;;9.86;50.13;99709.09;4412982;32;20086;-82
2023/12/18 04:45:34;;;;;;;13.82;6.05;;;;;;;9.84;49.86;99699.69;4412855;32;20098;-82
2023/12/18 04:48:01;;;;;;;15.77;6.50;;;;;;;9.61;50.29;99706.88;4413415;32;20081;-82
2023/12/18 04:50:28;;;;;;;14.73;6.18;;;;;;;9.85;49.88;99703.97;4414108;32;20110;-82
2023/12/18 04:52:55;;;;;;;14.15;6.00;;;;;;;9.42;50.95;99707.06;4413623;32;20066;-81
2023/12/18 04:55:22;;;;;;;15.95;6.12;;;;;;;9.12;51.66;99704.84;4413055;32;20120;-82
2023/12/18 04:57:49;;;;;;;13.57;5.93;;;;;;;8.99;51.97;99707.53;4413022;32;20086;-82
2023/12/18 05:00:16;;;;;;;12.90;5.53;;;;;;;9.34;51.63;99706.31;4412342;32;20080;-82
2023/12/18 05:02:43;;;;;;;15.32;5.95;;;;;;;9.65;50.72;99711.09;4413057;32;20459;-82
2023/12/18 05:05:10;;;;;;;13.88;5.70;;;;;;;9.27;51.61;99705.53;4413513;32;20073;-82
2023/12/18 05:07:37;;;;;;;12.57;5.18;;;;;;;9.17;51.68;99697.94;4412511;32;20106;-82
2023/12/18 05:10:05;;;;;;;12.68;5.25;;;;;;;8.14;53.53;99713.34;4412377;32;20091;-82
2023/12/18 05:12:32;;;;;;;13.52;5.37;;;;;;;6.64;59.59;99708.72;4412805;32;20095;-82
2023/12/18 05:15:00;;;;;;;13.60;5.75;;;;;;;6.03;61.76;99711.25;4412426;32;20078;-82
2023/12/18 05:17:30;;;;;;;14.93;6.25;;;;;;;7.26;58.41;99709.50;4413707;32;20737;-82
2023/12/18 05:19:57;;;;;;;14.48;5.95;;;;;;;8.00;56.41;99713.44;4413412;32;20128;-82
2023/12/18 05:22:24;;;;;;;14.93;5.87;;;;;;;8.36;54.32;99706.38;4411983;32;20146;-82
2023/12/18 05:24:51;;;;;;;12.45;5.62;;;;;;;8.60;53.72;99713.88;4412667;32;20068;-82
2023/12/18 05:27:20;;;;;;;13.05;5.70;;;;;;;9.14;52.04;99710.81;4413079;32;20081;-82
2023/12/18 05:29:47;;;;;;;15.25;5.82;;;;;;;9.23;51.72;99708.16;4412073;32;20098;-82
2023/12/18 05:32:14;;;;;;;15.68;6.28;;;;;;;9.47;50.95;99704.47;4412401;32;20110;-82
2023/12/18 05:34:41;;;;;;;14.75;6.57;;;;;;;8.98;51.59;99705.84;4412754;32;20113;-82
2023/12/18 05:37:08;;;;;;;12.85;5.10;;;;;;;8.50;53.09;99706.25;4412164;32;20086;-82
2023/12/18 05:39:35;;;;;;;13.88;5.45;;;;;;;8.40;53.26;99711.50;4412534;32;20144;-82
2023/12/18 05:42:02;;;;;;;12.88;5.65;;;;;;;8.97;52.71;99704.13;4412437;32;20146;-82
2023/12/18 05:44:32;;;;;;;11.40;5.12;;;;;;;7.81;55.04;99704.13;4412325;32;20093;-82
2023/12/18 05:46:59;;;;;;;12.07;4.93;;;;;;;8.32;55.06;99708.09;4412016;32;20188;-82
2023/12/18 05:49:27;;;;;;;12.93;4.55;;;;;;;8.97;52.78;99698.97;4412018;32;20128;-82
2023/12/18 05:51:55;;;;;;;14.73;5.35;;;;;;;8.17;54.59;99704.75;4411991;32;20106;-82
2023/12/18 05:54:22;;;;;;;14.63;4.82;;;;;;;7.57;57.19;99702.53;4411959;32;20116;-82
2023/12/18 05:56:50;;;;;;;10.88;4.82;;;;;;;8.15;55.00;99707.34;4411560;32;20090;-82
2023/12/18 05:59:16;;;;;;;12.18;4.87;;;;;;;8.35;54.71;99702.94;4417513;32;20062;-77
2023/12/18 06:01:43;;;;;;;14.57;4.80;;;;;;;8.47;54.29;99702.00;4418171;32;20067;-85
2023/12/18 06:04:11;;;;;;;11.38;4.35;;;;;;;9.21;52.06;99697.00;4421810;32;20077;-84
2023/12/18 06:06:38;;;;;;;11.55;4.18;;;;;;;9.77;49.99;99696.31;4421956;32;20066;-84
2023/12/18 06:09:05;;;;;;;12.73;4.80;;;;;;;9.33;50.78;99690.88;4422771;32;20058;-83
2023/12/18 06:11:33;;;;;;;11.00;4.03;;;;;;;8.60;52.63;99690.72;4422428;32;20074;-84
2023/12/18 06:14:00;;;;;;;10.95;4.07;;;;;;;9.23;52.17;99693.53;4412009;32;20098;-82
2023/12/18 06:16:27;;;;;;;10.90;4.25;;;;;;;9.31;51.50;99693.47;4398045;32;20452;-83
2023/12/18 06:18:54;;;;;;;10.82;4.18;;;;;;;9.25;51.41;99693.53;4413451;32;20090;-84
2023/12/18 06:21:22;;;;;;;11.55;4.35;;;;;;;9.32;51.08;99689.16;4398064;32;20121;-86
2023/12/18 06:23:57;;;;;;;13.00;5.12;;;;;;;8.81;52.63;99687.13;4396769;32;20141;-80
2023/12/18 06:26:24;;;;;;;13.25;4.47;;;;;;;8.02;55.20;99703.16;4409280;32;20128;-80
2023/12/18 06:28:51;;;;;;;12.13;5.05;;;;;;;8.43;53.68;99702.91;4409271;32;20090;-80
2023/12/18 06:31:18;;;;;;;13.27;5.07;;;;;;;9.33;51.90;99709.75;4408958;32;20157;-80
2023/12/18 06:33:45;;;;;;;12.65;4.87;;;;;;;9.21;51.40;99713.31;4409587;32;20094;-80
2023/12/18 06:36:17;;;;;;;12.88;5.07;;;;;;;9.89;50.03;99710.81;4397280;32;20104;-80
2023/12/18 06:38:45;;;;;;;15.43;5.50;;;;;;;9.34;51.09;99714.03;4410747;32;20117;-80
2023/12/18 06:41:12;;;;;;;13.38;5.30;;;;;;;8.77;52.04;99712.91;4411030;32;20509;-80
2023/12/18 06:43:39;;;;;;;16.45;6.10;;;;;;;9.26;52.00;99714.13;4411000;32;20106;-80
2023/12/18 06:46:06;;;;;;;15.23;6.78;;;;;;;10.02;49.77;99716.63;4410526;32;20165;-80
2023/12/18 06:48:33;;;;;;;16.40;7.00;;;;;;;10.25;48.81;99719.75;4410943;32;20432;-81
2023/12/18 06:51:00;;;;;;;17.15;7.32;;;;;;;9.53;50.59;99715.53;4410954;32;20144;-81
2023/12/18 06:53:27;;;;;;;18.33;7.47;;;;;;;9.22;51.65;99719.31;4410690;32;20165;-81
2023/12/18 06:55:55;;;;;;;14.38;6.32;;;;;;;9.52;51.15;99716.41;4410754;32;20125;-81
2023/12/18 06:58:23;;;;;;;15.32;6.40;;;;;;;9.38;51.29;99718.28;4410854;32;20105;-81
2023/12/18 07:00:50;;;;;;;16.25;6.22;;;;;;;9.71;50.40;99722.19;4410633;32;20193;-81
2023/12/18 07:03:17;;;;;;;17.62;7.60;;;;;;;10.32;48.86;99718.81;4411321;32;20125;-82
2023/12/18 07:05:45;;;;;;;14.02;6.40;;;;;;;10.73;48.48;99717.25;4410956;32;20097;-81
2023/12/18 07:08:12;;;;;;;14.93;6.25;;;;;;;11.05;47.67;99713.28;4410456;32;20089;-81
2023/12/18 07:10:39;;;;;;;19.65;8.27;;;;;;;11.24;47.37;99718.06;4410503;32;20090;-81
2023/12/18 07:13:06;;;;;;;20.70;8.60;;;;;;;11.49;47.08;99727.97;4410463;32;20090;-81
2023/12/18 07:15:33;;;;;;;19.77;8.38;;;;;;;12.03;45.97;99725.16;4410656;32;20151;-80
2023/12/18 07:18:01;;;;;;;16.73;7.87;;;;;;;12.24;44.36;99729.84;4410789;32;20121;-80
2023/12/18 07:20:28;;;;;;;17.35;7.78;;;;;;;12.14;44.91;99730.94;4411947;32;20098;-82
2023/12/18 07:22:56;;;;;;;19.33;7.68;;;;;;;12.27;44.63;99734.94;4397140;32;20137;-80
2023/12/18 07:25:23;;;;;;;17.10;7.70;;;;;;;12.77;43.22;99730.31;4410611;32;20148;-80
2023/12/18 07:27:50;;;;;;;17.90;7.75;;;;;;;13.01;42.64;99732.25;4410430;32;20107;-80
2023/12/18 07:30:20;;;;;;;16.08;7.60;;;;;;;12.89;43.10;99730.00;4410635;32;20110;-81
2023/12/18 07:32:47;;;;;;;14.45;6.78;;;;;;;13.07;42.74;99728.66;4410584;32;20090;-81
2023/12/18 07:35:14;;;;;;;17.05;7.15;;;;;;;13.71;42.17;99737.28;4410708;32;20054;-81
2023/12/18 07:37:41;;;;;;;18.02;7.80;;;;;;;14.32;40.34;99735.47;4412037;32;20101;-80
2023/12/18 07:40:09;;;;;;;15.40;8.00;;;;;;;14.21;40.09;99731.50;4411159;32;20093;-82
2023/12/18 07:42:36;;;;;;;16.92;8.02;;;;;;;13.87;40.97;99735.97;4410309;32;20174;-80
2023/12/18 07:45:05;;;;;;;16.60;7.55;;;;;;;12.82;42.66;99730.19;4411199;32;20152;-81
2023/12/18 07:47:32;;;;;;;17.65;8.52;;;;;;;12.70;43.07;99734.78;4414212;32;20539;-80
2023/12/18 07:49:59;;;;;;;19.15;8.10;;;;;;;12.88;43.46;99735.22;4410170;32;20370;-81
2023/12/18 07:52:26;;;;;;;16.70;8.32;;;;;;;13.28;42.25;99729.84;4410563;32;20089;-80
2023/12/18 07:54:53;;;;;;;19.08;9.02;;;;;;;12.92;42.92;99722.12;4410499;32;20101;-79
2023/12/18 07:57:21;;;;;;;18.73;9.23;;;;;;;12.58;43.21;99726.44;4410221;32;20074;-80
2023/12/18 07:59:48;;;;;;;16.48;8.05;;;;;;;13.11;43.09;99729.44;4410431;32;20125;-82
2023/12/18 08:02:15;;;;;;;18.37;8.57;;;;;;;13.58;42.41;99729.00;4410389;32;20131;-80
2023/12/18 08:04:42;;;;;;;20.08;8.68;;;;;;;12.62;43.59;99734.09;4410492;32;20091;-80
2023/12/18 08:07:08;;;;;;;17.40;7.95;;;;;;;11.28;46.48;99721.47;4410450;32;20086;-80
2023/12/18 08:09:35;;;;;;;19.98;9.48;;;;;;;10.78;48.31;99732.69;4410086;32;20145;-80
2023/12/18 08:12:03;;;;;;;18.33;7.70;;;;;;;10.37;49.39;99729.03;4410360;32;20440;-80
2023/12/18 08:14:30;;;;;;;17.50;8.10;;;;;;;10.31;49.84;99734.28;4410396;32;20086;-80
2023/12/18 08:16:57;;;;;;;18.62;8.23;;;;;;;10.27;50.00;99736.06;4409809;32;20074;-80
2023/12/18 08:19:24;;;;;;;18.10;7.95;;;;;;;10.19;50.47;99730.12;4410318;32;20093;-79
2023/12/18 08:21:51;;;;;;;16.45;8.18;;;;;;;10.69;49.56;99729.38;4410421;32;20422;-79
2023/12/18 08:24:20;;;;;;;16.12;6.87;;;;;;;10.92;48.83;99726.41;4410030;32;20432;-84
2023/12/18 08:26:47;;;;;;;15.48;7.00;;;;;;;11.17;47.74;99724.25;4410032;32;20086;-83
2023/12/18 08:29:14;;;;;;;16.58;7.50;;;;;;;11.50;47.63;99727.06;4410333;32;20233;-83
2023/12/18 08:31:42;;;;;;;16.37;7.47;;;;;;;11.78;47.44;99725.63;4410002;32;20116;-84
2023/12/18 08:34:09;;;;;;;17.17;6.80;;;;;;;12.13;46.33;99730.09;4410267;32;20428;-83
2023/12/18 08:36:36;;;;;;;14.65;6.18;;;;;;;12.27;45.90;99732.34;4409968;32;20086;-84
2023/12/18 08:39:08;;;;;;;14.73;6.80;;;;;;;12.42;45.48;99721.63;4409644;32;20106;-83
2023/12/18 08:41:37;;;;;;;14.65;6.28;;;;;;;12.35;45.29;99732.19;4410241;32;20106;-83
2023/12/18 08:44:05;;;;;;;16.10;6.62;;;;;;;12.32;45.64;99727.91;4410123;32;20082;-84
2023/12/18 08:46:32;;;;;;;15.52;7.78;;;;;;;12.25;45.92;99739.31;4409742;32;20153;-84
2023/12/18 08:48:59;;;;;;;18.67;8.15;;;;;;;11.98;46.84;99732.13;4396350;32;20098;-83
2023/12/18 08:51:26;;;;;;;18.50;8.90;;;;;;;11.80;47.25;99734.25;4409863;32;20094;-84
2023/12/18 08:53:54;;;;;;;17.27;8.98;;;;;;;11.98;47.46;99742.47;4409015;32;20113;-84
2023/12/18 08:56:22;;;;;;;18.42;8.60;;;;;;;12.27;47.04;99744.44;4409345;32;20136;-84
2023/12/18 08:58:52;;;;;;;17.67;8.45;;;;;;;12.11;47.10;99736.16;4409788;32;20098;-83
2023/12/18 09:01:19;;;;;;;17.85;7.90;;;;;;;12.12;47.51;99736.16;4409396;32;20098;-83
2023/12/18 09:03:47;;;;;;;18.17;7.80;;;;;;;12.66;46.12;99727.13;4396901;32;20086;-85
2023/12/18 09:06:14;;;;;;;15.95;7.65;;;;;;;13.20;45.06;99721.47;4399930;32;20453;-83
2023/12/18 09:08:41;;;;;;;17.92;7.87;;;;;;;13.64;44.51;99729.75;4404067;32;20476;-84
2023/12/18 09:11:08;;;;;;;18.12;8.32;;;;;;;14.06;43.37;99731.09;4395173;32;20148;-85
2023/12/18 09:13:37;;;;;;;15.63;7.50;;;;;;;14.38;42.77;99724.91;4402066;32;20126;-85
2023/12/18 09:16:05;;;;;;;17.48;7.70;;;;;;;14.35;42.31;99732.75;4396653;32;20098;-83
2023/12/18 09:18:33;;;;;;;19.02;8.18;;;;;;;14.56;42.18;99720.03;4381108;32;20149;-84
2023/12/18 09:21:00;;;;;;;15.65;7.70;;;;;;;14.54;42.21;99722.69;4399209;32;20494;-85
2023/12/18 09:23:28;;;;;;;16.58;8.02;;;;;;;14.41;42.29;99723.94;4404925;32;20106;-84
2023/12/18 09:25:55;;;;;;;16.60;7.30;;;;;;;14.10;42.91;99711.06;4398583;32;20476;-83
2023/12/18 09:28:22;;;;;;;14.60;7.03;;;;;;;13.94;43.40;99712.44;4398308;32;20118;-84
2023/12/18 09:30:49;;;;;;;16.00;7.10;;;;;;;14.13;43.51;99714.41;4394863;32;20116;-86
2023/12/18 09:33:16;;;;;;;14.38;6.75;;;;;;;14.45;43.23;99715.19;4394931;32;20481;-88
2023/12/18 09:35:43;;;;;;;14.32;6.50;;;;;;;14.75;42.57;99706.38;4395364;32;20366;-88
2023/12/18 09:38:10;;;;;;;14.40;6.15;;;;;;;15.04;42.48;99695.00;4395093;32;20464;-87
2023/12/18 09:40:37;;;;;;;14.90;6.30;;;;;;;16.03;40.63;99698.34;4382755;32;20172;-88
2023/12/18 09:43:04;;;;;;;12.45;5.28;;;;;;;16.50;39.44;99682.59;4395871;32;20084;-89
2023/12/18 09:45:32;;;;;;;12.80;5.68;;;;;;;17.05;38.32;99693.34;4395375;32;20079;-87
2023/12/18 09:47:59;;;;;;;13.07;5.97;;;;;;;17.20;38.61;99683.97;4380899;32;20110;-88
2023/12/18 09:50:27;;;;;;;12.77;5.70;;;;;;;17.96;37.47;99692.75;4381185;32;20161;-87
2023/12/18 09:53:07;;;;;;;12.27;5.62;;;;;;;17.83;37.43;99687.25;4394439;32;20100;-86
2023/12/18 09:55:34;;;;;;;13.60;5.57;;;;;;;17.75;37.18;99682.38;4394123;32;20487;-86
2023/12/18 09:58:02;;;;;;;12.88;5.82;;;;;;;17.41;36.86;99684.81;4394364;32;20107;-85
2023/12/18 10:00:29;;;;;;;12.13;5.55;;;;;;;16.70;37.97;99684.41;4381013;32;20381;-85
2023/12/18 10:02:58;;;;;;;15.00;5.95;;;;;;;16.77;38.02;99685.81;4380590;32;20085;-85
2023/12/18 10:05:26;;;;;;;13.25;5.82;;;;;;;16.78;38.58;99677.94;4380899;32;20105;-86
2023/12/18 10:07:54;;;;;;;12.93;5.62;;;;;;;17.29;37.77;99680.97;4394546;32;20675;-80
2023/12/18 10:10:21;;;;;;;11.93;5.32;;;;;;;17.37;37.57;99680.66;4393699;32;20110;-82
2023/12/18 10:12:48;;;;;;;14.68;6.22;;;;;;;17.26;38.28;99673.28;4380927;32;20161;-82
2023/12/18 10:15:16;;;;;;;14.75;7.10;;;;;;;18.08;36.88;99666.06;4394220;32;20105;-82
2023/12/18 10:17:43;;;;;;;14.35;6.72;;;;;;;18.62;36.02;99665.16;4393907;32;20095;-82
2023/12/18 10:20:12;;;;;;;14.85;7.22;;;;;;;18.47;36.38;99668.50;4393657;32;20086;-82
2023/12/18 10:22:40;;;;;;;16.70;7.22;;;;;;;18.18;37.24;99662.94;4393877;32;20118;-83
2023/12/18 10:25:12;;;;;;;14.68;6.68;;;;;;;18.05;37.79;99659.22;4393798;32;20437;-82
2023/12/18 10:27:39;;;;;;;13.77;6.00;;;;;;;18.24;37.39;99653.09;4380539;32;20106;-82
2023/12/18 10:30:07;;;;;;;11.85;5.57;;;;;;;18.31;37.66;99651.91;4393621;32;20164;-82
2023/12/18 10:32:39;;;;;;;13.35;5.18;;;;;;;18.36;37.30;99647.28;4394119;32;20149;-83
2023/12/18 10:35:08;;;;;;;11.32;4.47;;;;;;;18.61;36.14;99650.37;4394024;32;20121;-82
2023/12/18 10:37:35;;;;;;;12.10;4.70;;;;;;;18.90;35.44;99637.59;4393697;32;20118;-83
2023/12/18 10:40:07;;;;;;;10.73;4.50;;;;;;;19.08;34.60;99632.28;4393724;32;20106;-84
2023/12/18 10:42:36;;;;;;;9.45;4.07;;;;;;;19.16;34.76;99636.28;4393727;32;20218;-84
2023/12/18 10:45:06;;;;;;;10.82;4.12;;;;;;;19.43;34.45;99636.56;4393258;32;20450;-82
2023/12/18 10:47:34;;;;;;;11.23;4.30;;;;;;;19.76;33.84;99636.53;4394270;32;20106;-82
2023/12/18 10:50:04;;;;;;;11.73;5.03;;;;;;;19.61;34.71;99630.38;4433730;27;20102;-82
2023/12/18 10:52:32;;;;;;;11.68;4.35;;;;;;;19.24;35.15;99636.69;4378460;32;20152;-83
2023/12/18 10:55:00;;;;;;;10.55;4.55;;;;;;;19.02;34.44;99627.34;4378643;32;20083;-82
2023/12/18 10:57:28;;;;;;;10.25;4.70;;;;;;;18.58;35.31;99634.00;4378640;32;20118;-82
2023/12/18 10:59:58;;;;;;;10.70;4.90;;;;;;;18.11;36.30;99618.91;4390843;32;20117;-83
2023/12/18 11:02:26;;;;;;;9.82;4.20;;;;;;;17.97;36.33;99622.19;4405004;32;20090;-82
2023/12/18 11:04:56;;;;;;;10.75;4.32;;;;;;;17.57;36.84;99610.13;4392138;32;20096;-81
2023/12/18 11:07:25;;;;;;;8.52;3.80;;;;;;;17.81;35.59;99602.94;4393622;32;20351;-82
2023/12/18 11:09:53;;;;;;;9.38;3.90;;;;;;;17.28;36.22;99598.41;4392236;32;20170;-82
2023/12/18 11:12:21;;;;;;;9.32;3.65;;;;;;;17.72;35.63;99592.94;4393307;32;20090;-81
2023/12/18 11:14:48;;;;;;;9.90;3.62;;;;;;;17.49;36.72;99596.59;4393361;32;20086;-83
2023/12/18 11:17:18;;;;;;;9.60;3.70;;;;;;;18.14;35.00;99590.84;4393255;32;20154;-82
2023/12/18 11:19:55;;;;;;;10.35;3.62;;;;;;;17.91;35.68;99583.31;4393378;32;20112;-81
2023/12/18 11:22:35;;;;;;;7.50;3.15;;;;;;;17.92;34.85;99585.00;4395788;32;20131;-81
2023/12/18 11:25:04;;;;;;;10.35;3.65;;;;;;;17.70;35.33;99581.72;4395772;32;20152;-81
2023/12/18 11:27:31;;;;;;;8.70;3.70;;;;;;;17.67;35.63;99574.84;4395260;32;20559;-82
2023/12/18 11:29:58;;;;;;;11.18;4.40;;;;;;;18.07;35.42;99572.94;4395420;32;20173;-82